sensor_id;sensor_type;location;lat;lon;timestamp;P1;durP1;ratioP1;P2;durP2;ratioP2
66129;SDS011;52930;51.464;11.764;2022-09-20T00:00:13;6.17;;;2.10;;
66129;SDS011;52930;51.464;11.764;2022-09-20T00:02:38;8.27;;;2.22;;
66129;SDS011;52930;51.464;11.764;2022-09-20T00:05:04;6.80;;;2.00;;
66129;SDS011;52930;51.464;11.764;2022-09-20T00:07:30;7.68;;;1.75;;
66129;SDS011;52930;51.464;11.764;2022-09-20T00:09:56;7.85;;;1.92;;
66129;SDS011;52930;51.464;11.764;2022-09-20T00:12:22;7.43;;;1.53;;
66129;SDS011;52930;51.464;11.764;2022-09-20T00:14:47;7.70;;;2.03;;
66129;SDS011;52930;51.464;11.764;2022-09-20T00:17:12;8.90;;;1.87;;
66129;SDS011;52930;51.464;11.764;2022-09-20T00:19:38;7.40;;;1.70;;
66129;SDS011;52930;51.464;11.764;2022-09-20T00:22:04;6.55;;;1.50;;
66129;SDS011;52930;51.464;11.764;2022-09-20T00:24:29;11.13;;;1.80;;
66129;SDS011;52930;51.464;11.764;2022-09-20T00:26:54;7.33;;;1.53;;
66129;SDS011;52930;51.464;11.764;2022-09-20T00:29:20;8.40;;;2.00;;
66129;SDS011;52930;51.464;11.764;2022-09-20T00:31:45;5.83;;;1.83;;
66129;SDS011;52930;51.464;11.764;2022-09-20T00:34:11;7.57;;;1.70;;
66129;SDS011;52930;51.464;11.764;2022-09-20T00:36:55;5.72;;;1.30;;
66129;SDS011;52930;51.464;11.764;2022-09-20T00:39:20;7.00;;;1.20;;
66129;SDS011;52930;51.464;11.764;2022-09-20T00:41:46;4.23;;;1.27;;
66129;SDS011;52930;51.464;11.764;2022-09-20T00:47:11;6.75;;;1.55;;
66129;SDS011;52930;51.464;11.764;2022-09-20T00:49:58;4.60;;;1.42;;
66129;SDS011;52930;51.464;11.764;2022-09-20T00:52:29;5.80;;;1.50;;
66129;SDS011;52930;51.464;11.764;2022-09-20T00:54:55;9.20;;;1.45;;
66129;SDS011;52930;51.464;11.764;2022-09-20T00:57:21;6.00;;;1.13;;
66129;SDS011;52930;51.464;11.764;2022-09-20T00:59:47;7.85;;;1.50;;
66129;SDS011;52930;51.464;11.764;2022-09-20T01:02:15;6.80;;;1.20;;
66129;SDS011;52930;51.464;11.764;2022-09-20T01:04:42;5.47;;;1.38;;
66129;SDS011;52930;51.464;11.764;2022-09-20T01:07:09;9.73;;;1.10;;
66129;SDS011;52930;51.464;11.764;2022-09-20T01:09:36;4.47;;;0.90;;
66129;SDS011;52930;51.464;11.764;2022-09-20T01:12:02;3.93;;;1.10;;
66129;SDS011;52930;51.464;11.764;2022-09-20T01:14:30;5.32;;;1.15;;
66129;SDS011;52930;51.464;11.764;2022-09-20T01:16:56;4.70;;;1.10;;
66129;SDS011;52930;51.464;11.764;2022-09-20T01:19:27;5.45;;;1.10;;
66129;SDS011;52930;51.464;11.764;2022-09-20T01:22:20;6.20;;;1.40;;
66129;SDS011;52930;51.464;11.764;2022-09-20T01:24:57;4.20;;;1.30;;
66129;SDS011;52930;51.464;11.764;2022-09-20T01:30:07;6.28;;;0.88;;
66129;SDS011;52930;51.464;11.764;2022-09-20T01:32:43;5.80;;;1.00;;
66129;SDS011;52930;51.464;11.764;2022-09-20T01:35:09;4.95;;;0.93;;
66129;SDS011;52930;51.464;11.764;2022-09-20T01:37:40;6.43;;;1.33;;
66129;SDS011;52930;51.464;11.764;2022-09-20T01:45:45;5.85;;;1.20;;
66129;SDS011;52930;51.464;11.764;2022-09-20T01:56:37;7.53;;;2.00;;
66129;SDS011;52930;51.464;11.764;2022-09-20T01:59:15;8.80;;;1.30;;
66129;SDS011;52930;51.464;11.764;2022-09-20T02:01:52;7.82;;;1.00;;
66129;SDS011;52930;51.464;11.764;2022-09-20T02:04:40;4.55;;;1.13;;
66129;SDS011;52930;51.464;11.764;2022-09-20T02:10:41;4.35;;;1.10;;
66129;SDS011;52930;51.464;11.764;2022-09-20T02:22:13;6.30;;;1.30;;
66129;SDS011;52930;51.464;11.764;2022-09-20T02:38:44;6.97;;;1.58;;
66129;SDS011;52930;51.464;11.764;2022-09-20T02:41:20;6.57;;;1.50;;
66129;SDS011;52930;51.464;11.764;2022-09-20T02:49:36;10.93;;;1.50;;
66129;SDS011;52930;51.464;11.764;2022-09-20T02:55:06;8.05;;;1.50;;
66129;SDS011;52930;51.464;11.764;2022-09-20T02:57:49;8.32;;;1.38;;
66129;SDS011;52930;51.464;11.764;2022-09-20T03:00:19;5.45;;;1.45;;
66129;SDS011;52930;51.464;11.764;2022-09-20T03:11:14;7.93;;;1.95;;
66129;SDS011;52930;51.464;11.764;2022-09-20T03:16:54;7.47;;;1.83;;
66129;SDS011;52930;51.464;11.764;2022-09-20T03:27:27;7.20;;;1.73;;
66129;SDS011;52930;51.464;11.764;2022-09-20T03:30:17;8.52;;;1.70;;
66129;SDS011;52930;51.464;11.764;2022-09-20T03:38:24;7.97;;;2.13;;
66129;SDS011;52930;51.464;11.764;2022-09-20T03:46:08;8.65;;;2.20;;
66129;SDS011;52930;51.464;11.764;2022-09-20T03:56:38;7.40;;;2.60;;
66129;SDS011;52930;51.464;11.764;2022-09-20T04:02:12;8.65;;;2.58;;
66129;SDS011;52930;51.464;11.764;2022-09-20T04:04:54;7.18;;;2.45;;
66129;SDS011;52930;51.464;11.764;2022-09-20T04:12:55;11.30;;;2.53;;
66129;SDS011;52930;51.464;11.764;2022-09-20T04:15:34;12.50;;;2.63;;
66129;SDS011;52930;51.464;11.764;2022-09-20T04:26:35;8.45;;;2.40;;
66129;SDS011;52930;51.464;11.764;2022-09-20T04:32:18;7.57;;;2.63;;
66129;SDS011;52930;51.464;11.764;2022-09-20T04:37:58;12.13;;;2.83;;
66129;SDS011;52930;51.464;11.764;2022-09-20T04:43:08;10.70;;;2.60;;
66129;SDS011;52930;51.464;11.764;2022-09-20T04:54:29;11.00;;;2.90;;
66129;SDS011;52930;51.464;11.764;2022-09-20T05:00:23;7.38;;;2.85;;
66129;SDS011;52930;51.464;11.764;2022-09-20T05:08:14;8.68;;;2.00;;
66129;SDS011;52930;51.464;11.764;2022-09-20T05:11:09;8.13;;;2.20;;
66129;SDS011;52930;51.464;11.764;2022-09-20T05:19:07;6.63;;;2.28;;
66129;SDS011;52930;51.464;11.764;2022-09-20T05:30:24;9.75;;;2.80;;
66129;SDS011;52930;51.464;11.764;2022-09-20T05:33:07;10.63;;;3.00;;
66129;SDS011;52930;51.464;11.764;2022-09-20T05:41:22;9.57;;;2.63;;
66129;SDS011;52930;51.464;11.764;2022-09-20T05:55:19;11.43;;;3.22;;
66129;SDS011;52930;51.464;11.764;2022-09-20T06:03:40;12.82;;;3.03;;
66129;SDS011;52930;51.464;11.764;2022-09-20T06:06:13;7.72;;;2.58;;
66129;SDS011;52930;51.464;11.764;2022-09-20T06:14:39;13.25;;;3.05;;
66129;SDS011;52930;51.464;11.764;2022-09-20T06:22:32;14.43;;;3.28;;
66129;SDS011;52930;51.464;11.764;2022-09-20T06:25:02;10.30;;;2.65;;
66129;SDS011;52930;51.464;11.764;2022-09-20T06:27:40;7.28;;;2.72;;
66129;SDS011;52930;51.464;11.764;2022-09-20T06:30:12;12.73;;;3.00;;
66129;SDS011;52930;51.464;11.764;2022-09-20T06:35:41;10.20;;;2.03;;
66129;SDS011;52930;51.464;11.764;2022-09-20T06:40:59;7.40;;;2.40;;
66129;SDS011;52930;51.464;11.764;2022-09-20T06:43:44;7.45;;;2.65;;
66129;SDS011;52930;51.464;11.764;2022-09-20T06:46:12;5.03;;;1.85;;
66129;SDS011;52930;51.464;11.764;2022-09-20T06:48:39;9.73;;;1.90;;
66129;SDS011;52930;51.464;11.764;2022-09-20T06:51:07;5.87;;;1.87;;
66129;SDS011;52930;51.464;11.764;2022-09-20T06:53:34;9.38;;;1.90;;
66129;SDS011;52930;51.464;11.764;2022-09-20T06:56:01;8.10;;;2.10;;
66129;SDS011;52930;51.464;11.764;2022-09-20T06:58:26;5.57;;;1.87;;
66129;SDS011;52930;51.464;11.764;2022-09-20T07:00:52;9.47;;;1.80;;
66129;SDS011;52930;51.464;11.764;2022-09-20T07:03:17;7.83;;;2.10;;
66129;SDS011;52930;51.464;11.764;2022-09-20T07:05:44;5.78;;;1.58;;
66129;SDS011;52930;51.464;11.764;2022-09-20T07:08:10;10.00;;;1.83;;
66129;SDS011;52930;51.464;11.764;2022-09-20T07:10:36;7.13;;;1.67;;
66129;SDS011;52930;51.464;11.764;2022-09-20T07:13:02;8.85;;;1.80;;
66129;SDS011;52930;51.464;11.764;2022-09-20T07:15:29;7.82;;;1.75;;
66129;SDS011;52930;51.464;11.764;2022-09-20T07:17:55;5.50;;;1.30;;
66129;SDS011;52930;51.464;11.764;2022-09-20T07:20:21;4.97;;;1.60;;
66129;SDS011;52930;51.464;11.764;2022-09-20T07:22:47;9.00;;;1.85;;
66129;SDS011;52930;51.464;11.764;2022-09-20T07:25:12;8.52;;;1.80;;
66129;SDS011;52930;51.464;11.764;2022-09-20T07:27:38;7.73;;;1.63;;
66129;SDS011;52930;51.464;11.764;2022-09-20T07:30:04;8.98;;;1.65;;
66129;SDS011;52930;51.464;11.764;2022-09-20T07:32:30;6.23;;;1.63;;
66129;SDS011;52930;51.464;11.764;2022-09-20T07:34:56;12.73;;;2.13;;
66129;SDS011;52930;51.464;11.764;2022-09-20T07:37:21;8.20;;;2.23;;
66129;SDS011;52930;51.464;11.764;2022-09-20T07:39:46;6.27;;;1.80;;
66129;SDS011;52930;51.464;11.764;2022-09-20T07:42:12;8.37;;;2.23;;
66129;SDS011;52930;51.464;11.764;2022-09-20T07:44:38;6.45;;;2.13;;
66129;SDS011;52930;51.464;11.764;2022-09-20T07:47:06;10.05;;;2.30;;
66129;SDS011;52930;51.464;11.764;2022-09-20T07:49:35;6.07;;;2.03;;
66129;SDS011;52930;51.464;11.764;2022-09-20T07:52:00;10.98;;;2.70;;
66129;SDS011;52930;51.464;11.764;2022-09-20T07:54:27;9.90;;;2.40;;
66129;SDS011;52930;51.464;11.764;2022-09-20T07:56:52;9.03;;;2.57;;
66129;SDS011;52930;51.464;11.764;2022-09-20T07:59:18;13.38;;;2.47;;
66129;SDS011;52930;51.464;11.764;2022-09-20T08:01:43;9.83;;;2.50;;
66129;SDS011;52930;51.464;11.764;2022-09-20T08:04:09;7.90;;;2.40;;
66129;SDS011;52930;51.464;11.764;2022-09-20T08:06:35;10.00;;;2.83;;
66129;SDS011;52930;51.464;11.764;2022-09-20T08:09:02;11.65;;;2.50;;
66129;SDS011;52930;51.464;11.764;2022-09-20T08:11:27;7.30;;;2.67;;
66129;SDS011;52930;51.464;11.764;2022-09-20T08:13:55;9.27;;;2.90;;
66129;SDS011;52930;51.464;11.764;2022-09-20T08:16:21;15.20;;;3.75;;
66129;SDS011;52930;51.464;11.764;2022-09-20T08:18:48;10.77;;;3.58;;
66129;SDS011;52930;51.464;11.764;2022-09-20T08:21:15;7.35;;;2.53;;
66129;SDS011;52930;51.464;11.764;2022-09-20T08:23:41;10.10;;;3.20;;
66129;SDS011;52930;51.464;11.764;2022-09-20T08:26:09;9.68;;;3.10;;
66129;SDS011;52930;51.464;11.764;2022-09-20T08:28:39;12.35;;;3.67;;
66129;SDS011;52930;51.464;11.764;2022-09-20T08:31:06;13.55;;;4.22;;
66129;SDS011;52930;51.464;11.764;2022-09-20T08:33:34;15.55;;;4.38;;
66129;SDS011;52930;51.464;11.764;2022-09-20T08:36:03;12.55;;;3.78;;
66129;SDS011;52930;51.464;11.764;2022-09-20T08:38:31;11.95;;;4.55;;
66129;SDS011;52930;51.464;11.764;2022-09-20T08:41:00;8.85;;;3.67;;
66129;SDS011;52930;51.464;11.764;2022-09-20T08:43:29;10.02;;;3.55;;
66129;SDS011;52930;51.464;11.764;2022-09-20T08:45:57;10.65;;;3.25;;
66129;SDS011;52930;51.464;11.764;2022-09-20T08:48:24;10.15;;;3.55;;
66129;SDS011;52930;51.464;11.764;2022-09-20T08:50:52;12.98;;;3.78;;
66129;SDS011;52930;51.464;11.764;2022-09-20T08:53:18;8.63;;;3.20;;
66129;SDS011;52930;51.464;11.764;2022-09-20T08:55:43;10.00;;;2.92;;
66129;SDS011;52930;51.464;11.764;2022-09-20T08:58:10;12.23;;;3.50;;
66129;SDS011;52930;51.464;11.764;2022-09-20T09:00:37;12.75;;;3.13;;
66129;SDS011;52930;51.464;11.764;2022-09-20T09:03:11;8.25;;;2.70;;
66129;SDS011;52930;51.464;11.764;2022-09-20T09:05:40;10.07;;;2.95;;
66129;SDS011;52930;51.464;11.764;2022-09-20T09:08:11;13.10;;;2.65;;
66129;SDS011;52930;51.464;11.764;2022-09-20T09:10:40;10.87;;;2.70;;
66129;SDS011;52930;51.464;11.764;2022-09-20T09:13:07;9.32;;;3.00;;
66129;SDS011;52930;51.464;11.764;2022-09-20T09:15:40;8.93;;;3.00;;
66129;SDS011;52930;51.464;11.764;2022-09-20T09:18:08;11.05;;;2.85;;
66129;SDS011;52930;51.464;11.764;2022-09-20T09:20:39;11.65;;;2.92;;
66129;SDS011;52930;51.464;11.764;2022-09-20T09:23:06;7.30;;;2.70;;
66129;SDS011;52930;51.464;11.764;2022-09-20T09:25:39;7.80;;;2.42;;
66129;SDS011;52930;51.464;11.764;2022-09-20T09:30:35;9.37;;;2.77;;
66129;SDS011;52930;51.464;11.764;2022-09-20T09:35:41;7.97;;;2.10;;
66129;SDS011;52930;51.464;11.764;2022-09-20T09:38:16;6.90;;;2.10;;
66129;SDS011;52930;51.464;11.764;2022-09-20T09:41:04;9.20;;;2.70;;
66129;SDS011;52930;51.464;11.764;2022-09-20T09:43:35;10.55;;;2.50;;
66129;SDS011;52930;51.464;11.764;2022-09-20T09:46:20;9.05;;;2.50;;
66129;SDS011;52930;51.464;11.764;2022-09-20T09:49:02;8.43;;;2.85;;
66129;SDS011;52930;51.464;11.764;2022-09-20T09:51:39;7.00;;;2.05;;
66129;SDS011;52930;51.464;11.764;2022-09-20T09:54:08;7.83;;;2.50;;
66129;SDS011;52930;51.464;11.764;2022-09-20T09:56:44;8.93;;;1.83;;
66129;SDS011;52930;51.464;11.764;2022-09-20T10:02:38;6.00;;;1.80;;
66129;SDS011;52930;51.464;11.764;2022-09-20T10:05:17;8.35;;;2.20;;
66129;SDS011;52930;51.464;11.764;2022-09-20T10:27:11;6.22;;;2.20;;
66129;SDS011;52930;51.464;11.764;2022-09-20T10:35:38;7.57;;;2.50;;
66129;SDS011;52930;51.464;11.764;2022-09-20T10:38:15;10.68;;;2.28;;
66129;SDS011;52930;51.464;11.764;2022-09-20T10:43:53;7.75;;;1.95;;
66129;SDS011;52930;51.464;11.764;2022-09-20T11:06:13;11.43;;;3.10;;
66129;SDS011;52930;51.464;11.764;2022-09-20T11:08:51;6.95;;;2.50;;
66129;SDS011;52930;51.464;11.764;2022-09-20T11:11:20;6.35;;;2.40;;
66129;SDS011;52930;51.464;11.764;2022-09-20T11:16:24;9.83;;;3.07;;
66129;SDS011;52930;51.464;11.764;2022-09-20T11:18:58;7.82;;;2.38;;
66129;SDS011;52930;51.464;11.764;2022-09-20T11:21:31;7.28;;;2.75;;
66129;SDS011;52930;51.464;11.764;2022-09-20T11:26:43;8.50;;;3.17;;
66129;SDS011;52930;51.464;11.764;2022-09-20T11:32:30;6.97;;;2.10;;
66129;SDS011;52930;51.464;11.764;2022-09-20T11:37:37;7.63;;;2.35;;
66129;SDS011;52930;51.464;11.764;2022-09-20T11:40:10;6.43;;;2.22;;
66129;SDS011;52930;51.464;11.764;2022-09-20T11:42:41;5.80;;;2.30;;
66129;SDS011;52930;51.464;11.764;2022-09-20T11:45:09;8.13;;;2.40;;
66129;SDS011;52930;51.464;11.764;2022-09-20T11:47:40;8.23;;;2.75;;
66129;SDS011;52930;51.464;11.764;2022-09-20T11:55:41;7.00;;;2.25;;
66129;SDS011;52930;51.464;11.764;2022-09-20T11:58:29;6.60;;;2.30;;
66129;SDS011;52930;51.464;11.764;2022-09-20T12:00:55;5.40;;;2.10;;
66129;SDS011;52930;51.464;11.764;2022-09-20T12:05:59;6.63;;;2.50;;
66129;SDS011;52930;51.464;11.764;2022-09-20T12:08:30;6.97;;;2.40;;
66129;SDS011;52930;51.464;11.764;2022-09-20T12:10:59;7.45;;;2.75;;
66129;SDS011;52930;51.464;11.764;2022-09-20T12:13:28;6.47;;;2.90;;
66129;SDS011;52930;51.464;11.764;2022-09-20T12:16:00;7.97;;;2.60;;
66129;SDS011;52930;51.464;11.764;2022-09-20T12:26:05;4.53;;;1.45;;
66129;SDS011;52930;51.464;11.764;2022-09-20T12:33:55;6.73;;;1.83;;
66129;SDS011;52930;51.464;11.764;2022-09-20T12:36:31;6.07;;;1.90;;
66129;SDS011;52930;51.464;11.764;2022-09-20T12:38:59;6.75;;;2.03;;
66129;SDS011;52930;51.464;11.764;2022-09-20T12:41:43;6.10;;;1.33;;
66129;SDS011;52930;51.464;11.764;2022-09-20T12:47:05;3.90;;;1.10;;
66129;SDS011;52930;51.464;11.764;2022-09-20T13:08:31;4.25;;;0.98;;
66129;SDS011;52930;51.464;11.764;2022-09-20T13:11:09;4.50;;;1.20;;
66129;SDS011;52930;51.464;11.764;2022-09-20T13:13:54;5.53;;;1.00;;
66129;SDS011;52930;51.464;11.764;2022-09-20T13:16:29;5.65;;;1.20;;
66129;SDS011;52930;51.464;11.764;2022-09-20T13:21:55;3.25;;;0.55;;
66129;SDS011;52930;51.464;11.764;2022-09-20T13:24:23;3.47;;;0.90;;
66129;SDS011;52930;51.464;11.764;2022-09-20T13:26:49;3.20;;;0.60;;
66129;SDS011;52930;51.464;11.764;2022-09-20T13:29:30;3.22;;;0.70;;
66129;SDS011;52930;51.464;11.764;2022-09-20T13:32:19;3.33;;;0.63;;
66129;SDS011;52930;51.464;11.764;2022-09-20T13:35:05;5.13;;;1.00;;
66129;SDS011;52930;51.464;11.764;2022-09-20T13:37:32;3.50;;;0.73;;
66129;SDS011;52930;51.464;11.764;2022-09-20T13:39:58;3.10;;;0.60;;
66129;SDS011;52930;51.464;11.764;2022-09-20T13:42:23;3.25;;;0.70;;
66129;SDS011;52930;51.464;11.764;2022-09-20T13:44:50;3.90;;;0.90;;
66129;SDS011;52930;51.464;11.764;2022-09-20T13:47:23;2.97;;;0.70;;
66129;SDS011;52930;51.464;11.764;2022-09-20T13:49:50;2.97;;;0.80;;
66129;SDS011;52930;51.464;11.764;2022-09-20T13:52:21;5.20;;;0.70;;
66129;SDS011;52930;51.464;11.764;2022-09-20T13:54:50;3.58;;;0.70;;
66129;SDS011;52930;51.464;11.764;2022-09-20T13:57:18;5.07;;;1.03;;
66129;SDS011;52930;51.464;11.764;2022-09-20T13:59:50;3.78;;;0.80;;
66129;SDS011;52930;51.464;11.764;2022-09-20T14:04:47;3.90;;;0.98;;
66129;SDS011;52930;51.464;11.764;2022-09-20T14:07:14;4.57;;;0.90;;
66129;SDS011;52930;51.464;11.764;2022-09-20T14:09:40;3.10;;;1.00;;
66129;SDS011;52930;51.464;11.764;2022-09-20T14:12:06;3.47;;;0.82;;
66129;SDS011;52930;51.464;11.764;2022-09-20T14:14:32;3.17;;;1.00;;
66129;SDS011;52930;51.464;11.764;2022-09-20T14:16:58;3.20;;;0.80;;
66129;SDS011;52930;51.464;11.764;2022-09-20T14:19:29;3.08;;;0.70;;
66129;SDS011;52930;51.464;11.764;2022-09-20T14:21:57;3.88;;;1.08;;
66129;SDS011;52930;51.464;11.764;2022-09-20T14:24:26;4.67;;;0.90;;
66129;SDS011;52930;51.464;11.764;2022-09-20T14:37:24;2.80;;;0.70;;
66129;SDS011;52930;51.464;11.764;2022-09-20T14:40:40;3.03;;;0.50;;
66129;SDS011;52930;51.464;11.764;2022-09-20T14:42:46;3.17;;;0.77;;
66129;SDS011;52930;51.464;11.764;2022-09-20T14:45:19;2.53;;;0.32;;
66129;SDS011;52930;51.464;11.764;2022-09-20T14:48:06;2.75;;;0.47;;
66129;SDS011;52930;51.464;11.764;2022-09-20T14:51:10;3.50;;;0.50;;
66129;SDS011;52930;51.464;11.764;2022-09-20T14:53:48;3.60;;;0.70;;
66129;SDS011;52930;51.464;11.764;2022-09-20T14:56:35;3.30;;;0.43;;
66129;SDS011;52930;51.464;11.764;2022-09-20T14:59:18;2.88;;;0.60;;
66129;SDS011;52930;51.464;11.764;2022-09-20T15:04:51;2.60;;;0.43;;
66129;SDS011;52930;51.464;11.764;2022-09-20T15:07:18;2.65;;;0.40;;
66129;SDS011;52930;51.464;11.764;2022-09-20T15:09:43;2.53;;;0.40;;
66129;SDS011;52930;51.464;11.764;2022-09-20T15:14:41;2.30;;;0.50;;
66129;SDS011;52930;51.464;11.764;2022-09-20T15:17:17;2.70;;;0.60;;
66129;SDS011;52930;51.464;11.764;2022-09-20T15:19:44;2.27;;;0.40;;
66129;SDS011;52930;51.464;11.764;2022-09-20T15:22:10;3.65;;;0.50;;
66129;SDS011;52930;51.464;11.764;2022-09-20T15:24:36;2.63;;;0.63;;
66129;SDS011;52930;51.464;11.764;2022-09-20T15:27:02;3.10;;;0.37;;
66129;SDS011;52930;51.464;11.764;2022-09-20T15:29:28;3.70;;;0.60;;
66129;SDS011;52930;51.464;11.764;2022-09-20T15:31:54;2.92;;;0.40;;
66129;SDS011;52930;51.464;11.764;2022-09-20T15:34:19;3.43;;;0.43;;
66129;SDS011;52930;51.464;11.764;2022-09-20T15:36:44;2.57;;;0.40;;
66129;SDS011;52930;51.464;11.764;2022-09-20T15:39:10;3.33;;;0.53;;
66129;SDS011;52930;51.464;11.764;2022-09-20T15:41:35;2.38;;;0.45;;
66129;SDS011;52930;51.464;11.764;2022-09-20T15:44:04;2.43;;;0.37;;
66129;SDS011;52930;51.464;11.764;2022-09-20T15:46:30;4.13;;;0.60;;
66129;SDS011;52930;51.464;11.764;2022-09-20T15:48:56;3.27;;;0.60;;
66129;SDS011;52930;51.464;11.764;2022-09-20T15:51:24;2.50;;;0.50;;
66129;SDS011;52930;51.464;11.764;2022-09-20T15:53:54;2.80;;;0.40;;
66129;SDS011;52930;51.464;11.764;2022-09-20T15:56:22;2.90;;;0.60;;
66129;SDS011;52930;51.464;11.764;2022-09-20T15:58:55;2.30;;;0.40;;
66129;SDS011;52930;51.464;11.764;2022-09-20T16:01:31;2.40;;;0.50;;
66129;SDS011;52930;51.464;11.764;2022-09-20T16:04:06;2.58;;;0.57;;
66129;SDS011;52930;51.464;11.764;2022-09-20T16:06:43;4.43;;;0.50;;
66129;SDS011;52930;51.464;11.764;2022-09-20T16:09:10;3.97;;;0.70;;
66129;SDS011;52930;51.464;11.764;2022-09-20T16:11:36;2.47;;;0.50;;
66129;SDS011;52930;51.464;11.764;2022-09-20T16:14:02;4.15;;;0.73;;
66129;SDS011;52930;51.464;11.764;2022-09-20T16:16:29;3.33;;;0.70;;
66129;SDS011;52930;51.464;11.764;2022-09-20T16:18:54;4.90;;;0.80;;
66129;SDS011;52930;51.464;11.764;2022-09-20T16:21:39;2.90;;;0.60;;
66129;SDS011;52930;51.464;11.764;2022-09-20T16:24:06;3.38;;;0.77;;
66129;SDS011;52930;51.464;11.764;2022-09-20T16:26:33;3.55;;;0.90;;
66129;SDS011;52930;51.464;11.764;2022-09-20T16:28:59;2.92;;;0.60;;
66129;SDS011;52930;51.464;11.764;2022-09-20T16:34:14;3.93;;;0.77;;
66129;SDS011;52930;51.464;11.764;2022-09-20T16:36:47;2.70;;;0.47;;
66129;SDS011;52930;51.464;11.764;2022-09-20T16:39:21;3.63;;;0.85;;
66129;SDS011;52930;51.464;11.764;2022-09-20T16:41:51;2.40;;;0.43;;
66129;SDS011;52930;51.464;11.764;2022-09-20T16:44:18;3.00;;;0.60;;
66129;SDS011;52930;51.464;11.764;2022-09-20T16:46:43;3.23;;;0.60;;
66129;SDS011;52930;51.464;11.764;2022-09-20T16:49:09;3.40;;;0.80;;
66129;SDS011;52930;51.464;11.764;2022-09-20T16:51:37;2.80;;;0.70;;
66129;SDS011;52930;51.464;11.764;2022-09-20T16:54:04;3.25;;;0.90;;
66129;SDS011;52930;51.464;11.764;2022-09-20T16:56:32;3.00;;;0.70;;
66129;SDS011;52930;51.464;11.764;2022-09-20T16:58:59;3.88;;;1.08;;
66129;SDS011;52930;51.464;11.764;2022-09-20T17:01:25;3.70;;;0.73;;
66129;SDS011;52930;51.464;11.764;2022-09-20T17:03:50;3.58;;;0.70;;
66129;SDS011;52930;51.464;11.764;2022-09-20T17:06:16;2.87;;;0.70;;
66129;SDS011;52930;51.464;11.764;2022-09-20T17:08:43;3.70;;;0.65;;
66129;SDS011;52930;51.464;11.764;2022-09-20T17:11:14;2.95;;;0.85;;
66129;SDS011;52930;51.464;11.764;2022-09-20T17:13:41;3.85;;;0.85;;
66129;SDS011;52930;51.464;11.764;2022-09-20T17:16:11;4.65;;;0.98;;
66129;SDS011;52930;51.464;11.764;2022-09-20T17:18:38;3.67;;;0.97;;
66129;SDS011;52930;51.464;11.764;2022-09-20T17:21:09;3.25;;;1.10;;
66129;SDS011;52930;51.464;11.764;2022-09-20T17:23:39;3.63;;;0.90;;
66129;SDS011;52930;51.464;11.764;2022-09-20T17:26:07;3.70;;;1.00;;
66129;SDS011;52930;51.464;11.764;2022-09-20T17:28:36;4.30;;;1.20;;
66129;SDS011;52930;51.464;11.764;2022-09-20T17:31:03;3.60;;;1.00;;
66129;SDS011;52930;51.464;11.764;2022-09-20T17:33:30;4.35;;;1.17;;
66129;SDS011;52930;51.464;11.764;2022-09-20T17:35:57;3.70;;;1.20;;
66129;SDS011;52930;51.464;11.764;2022-09-20T17:38:24;3.72;;;1.23;;
66129;SDS011;52930;51.464;11.764;2022-09-20T17:41:00;4.35;;;1.05;;
66129;SDS011;52930;51.464;11.764;2022-09-20T17:43:33;5.80;;;1.33;;
66129;SDS011;52930;51.464;11.764;2022-09-20T17:46:06;4.82;;;1.17;;
66129;SDS011;52930;51.464;11.764;2022-09-20T17:48:35;5.30;;;1.33;;
66129;SDS011;52930;51.464;11.764;2022-09-20T17:51:00;3.60;;;1.33;;
66129;SDS011;52930;51.464;11.764;2022-09-20T17:53:28;4.15;;;1.20;;
66129;SDS011;52930;51.464;11.764;2022-09-20T17:55:54;6.28;;;1.33;;
66129;SDS011;52930;51.464;11.764;2022-09-20T17:58:20;4.40;;;1.40;;
66129;SDS011;52930;51.464;11.764;2022-09-20T18:00:46;6.53;;;1.65;;
66129;SDS011;52930;51.464;11.764;2022-09-20T18:03:12;7.80;;;2.00;;
66129;SDS011;52930;51.464;11.764;2022-09-20T18:05:38;5.03;;;1.67;;
66129;SDS011;52930;51.464;11.764;2022-09-20T18:08:03;4.00;;;1.30;;
66129;SDS011;52930;51.464;11.764;2022-09-20T18:10:29;5.10;;;1.57;;
66129;SDS011;52930;51.464;11.764;2022-09-20T18:12:54;4.70;;;1.70;;
66129;SDS011;52930;51.464;11.764;2022-09-20T18:15:19;4.68;;;1.58;;
66129;SDS011;52930;51.464;11.764;2022-09-20T18:17:45;4.83;;;1.73;;
66129;SDS011;52930;51.464;11.764;2022-09-20T18:20:10;5.20;;;1.97;;
66129;SDS011;52930;51.464;11.764;2022-09-20T18:22:35;5.53;;;1.93;;
66129;SDS011;52930;51.464;11.764;2022-09-20T18:25:02;6.45;;;2.25;;
66129;SDS011;52930;51.464;11.764;2022-09-20T18:27:28;5.07;;;2.20;;
66129;SDS011;52930;51.464;11.764;2022-09-20T18:29:54;6.30;;;2.25;;
66129;SDS011;52930;51.464;11.764;2022-09-20T18:32:20;6.17;;;2.13;;
66129;SDS011;52930;51.464;11.764;2022-09-20T18:34:45;6.60;;;1.90;;
66129;SDS011;52930;51.464;11.764;2022-09-20T18:37:15;5.87;;;2.17;;
66129;SDS011;52930;51.464;11.764;2022-09-20T18:39:41;7.50;;;1.65;;
66129;SDS011;52930;51.464;11.764;2022-09-20T18:42:07;4.93;;;1.75;;
66129;SDS011;52930;51.464;11.764;2022-09-20T18:44:33;4.88;;;1.73;;
66129;SDS011;52930;51.464;11.764;2022-09-20T18:46:59;4.88;;;1.60;;
66129;SDS011;52930;51.464;11.764;2022-09-20T18:49:25;4.15;;;1.70;;
66129;SDS011;52930;51.464;11.764;2022-09-20T18:51:50;5.80;;;1.57;;
66129;SDS011;52930;51.464;11.764;2022-09-20T18:54:16;5.43;;;1.80;;
66129;SDS011;52930;51.464;11.764;2022-09-20T18:56:42;4.55;;;1.77;;
66129;SDS011;52930;51.464;11.764;2022-09-20T19:10:00;6.70;;;2.63;;
66129;SDS011;52930;51.464;11.764;2022-09-20T19:12:36;6.65;;;2.92;;
66129;SDS011;52930;51.464;11.764;2022-09-20T19:23:05;7.30;;;2.35;;
66129;SDS011;52930;51.464;11.764;2022-09-20T19:25:41;6.13;;;2.13;;
66129;SDS011;52930;51.464;11.764;2022-09-20T19:28:10;5.73;;;2.20;;
66129;SDS011;52930;51.464;11.764;2022-09-20T19:30:36;6.88;;;3.15;;
66129;SDS011;52930;51.464;11.764;2022-09-20T19:33:07;11.00;;;3.33;;
66129;SDS011;52930;51.464;11.764;2022-09-20T19:35:38;6.25;;;2.80;;
66129;SDS011;52930;51.464;11.764;2022-09-20T19:38:09;5.88;;;2.53;;
66129;SDS011;52930;51.464;11.764;2022-09-20T19:46:57;7.30;;;2.78;;
66129;SDS011;52930;51.464;11.764;2022-09-20T19:49:39;6.63;;;2.75;;
66129;SDS011;52930;51.464;11.764;2022-09-20T19:52:19;6.35;;;2.63;;
66129;SDS011;52930;51.464;11.764;2022-09-20T19:54:45;7.90;;;2.90;;
66129;SDS011;52930;51.464;11.764;2022-09-20T19:57:15;6.47;;;2.40;;
66129;SDS011;52930;51.464;11.764;2022-09-20T19:59:43;8.45;;;3.00;;
66129;SDS011;52930;51.464;11.764;2022-09-20T20:02:10;8.82;;;3.08;;
66129;SDS011;52930;51.464;11.764;2022-09-20T20:04:36;7.45;;;2.78;;
66129;SDS011;52930;51.464;11.764;2022-09-20T20:09:49;6.63;;;2.80;;
66129;SDS011;52930;51.464;11.764;2022-09-20T20:12:24;7.20;;;2.80;;
66129;SDS011;52930;51.464;11.764;2022-09-20T20:20:37;6.43;;;2.50;;
66129;SDS011;52930;51.464;11.764;2022-09-20T20:26:07;8.20;;;4.03;;
66129;SDS011;52930;51.464;11.764;2022-09-20T20:28:34;6.93;;;2.83;;
66129;SDS011;52930;51.464;11.764;2022-09-20T20:30:59;6.55;;;2.67;;
66129;SDS011;52930;51.464;11.764;2022-09-20T20:33:26;7.03;;;2.55;;
66129;SDS011;52930;51.464;11.764;2022-09-20T20:35:58;6.53;;;2.70;;
66129;SDS011;52930;51.464;11.764;2022-09-20T20:38:25;7.20;;;2.88;;
66129;SDS011;52930;51.464;11.764;2022-09-20T20:41:00;7.15;;;3.17;;
66129;SDS011;52930;51.464;11.764;2022-09-20T20:43:30;6.35;;;2.60;;
66129;SDS011;52930;51.464;11.764;2022-09-20T20:45:59;6.28;;;2.58;;
66129;SDS011;52930;51.464;11.764;2022-09-20T20:48:25;12.17;;;3.10;;
66129;SDS011;52930;51.464;11.764;2022-09-20T20:51:03;6.23;;;2.67;;